createdAt,value
2019-05-03T00:01:42.022Z,3.20
2019-05-03T00:04:11.923Z,2.47
2019-05-03T00:06:38.305Z,2.60
2019-05-03T00:09:08.946Z,2.53
2019-05-03T00:11:35.406Z,2.80
2019-05-03T00:14:02.341Z,2.90
2019-05-03T00:16:32.577Z,2.97
2019-05-03T00:19:01.552Z,2.83
2019-05-03T00:21:28.531Z,3.40
2019-05-03T00:23:55.046Z,3.00
2019-05-03T00:26:22.537Z,2.70
2019-05-03T00:28:51.898Z,4.70
2019-05-03T00:31:18.325Z,2.97
2019-05-03T00:33:46.858Z,2.70
2019-05-03T00:36:15.324Z,3.07
2019-05-03T00:38:42.014Z,3.40
2019-05-03T00:41:08.543Z,4.17
2019-05-03T00:43:35.065Z,2.90
2019-05-03T00:46:02.099Z,2.70
2019-05-03T00:48:32.485Z,3.63
2019-05-03T00:50:58.881Z,3.17
2019-05-03T00:53:25.505Z,2.93
2019-05-03T00:55:52.465Z,2.40
2019-05-03T00:58:19.225Z,2.83
2019-05-03T01:00:45.756Z,2.30
2019-05-03T01:03:12.625Z,2.90
2019-05-03T01:05:39.341Z,2.83
2019-05-03T01:08:06.001Z,2.23
2019-05-03T01:10:33.181Z,2.90
2019-05-03T01:13:01.657Z,2.70
2019-05-03T01:15:36.379Z,2.70
2019-05-03T01:18:05.042Z,2.70
2019-05-03T01:20:32.021Z,3.10
2019-05-03T01:22:59.234Z,3.40
2019-05-03T01:25:32.388Z,3.07
2019-05-03T01:27:55.128Z,2.50
2019-05-03T01:30:22.645Z,4.00
2019-05-03T01:32:49.220Z,3.17
2019-05-03T01:35:15.749Z,2.83
2019-05-03T01:37:42.494Z,3.47
2019-05-03T01:40:09.249Z,3.00
2019-05-03T01:42:36.005Z,2.97
2019-05-03T01:45:07.002Z,2.70
2019-05-03T01:47:35.382Z,2.90
2019-05-03T01:50:22.787Z,2.83
2019-05-03T01:52:52.838Z,3.20
2019-05-03T01:55:19.505Z,2.77
2019-05-03T01:57:46.189Z,2.87
2019-05-03T02:00:15.217Z,3.00
2019-05-03T02:02:45.392Z,3.63
2019-05-03T02:05:32.068Z,2.60
2019-05-03T02:07:58.825Z,3.57
2019-05-03T02:10:25.462Z,2.60
2019-05-03T02:12:52.299Z,3.17
2019-05-03T02:15:18.842Z,3.40
2019-05-03T02:17:45.506Z,3.30
2019-05-03T02:20:12.767Z,2.43
2019-05-03T02:22:39.670Z,3.60
2019-05-03T02:25:07.332Z,3.30
2019-05-03T02:27:34.482Z,4.47
2019-05-03T02:30:03.077Z,3.30
2019-05-03T02:32:33.094Z,3.03
2019-05-03T02:34:59.549Z,2.73
2019-05-03T02:37:26.081Z,4.13
2019-05-03T02:39:55.048Z,3.00
2019-05-03T02:42:22.665Z,3.43
2019-05-03T02:44:49.333Z,2.67
2019-05-03T02:47:17.775Z,4.73
2019-05-03T02:49:46.346Z,3.30
2019-05-03T02:52:35.862Z,3.30
2019-05-03T02:55:06.021Z,2.97
2019-05-03T02:57:32.114Z,2.70
2019-05-03T02:59:58.771Z,2.53
2019-05-03T03:02:26.379Z,3.27
2019-05-03T03:04:56.156Z,3.13
2019-05-03T03:07:25.626Z,3.13
2019-05-03T03:09:52.086Z,3.30
2019-05-03T03:12:22.348Z,3.57
2019-05-03T03:14:52.007Z,2.80
2019-05-03T03:17:20.542Z,3.13
2019-05-03T03:19:50.102Z,3.23
2019-05-03T03:22:16.629Z,3.27
2019-05-03T03:24:47.001Z,3.37
2019-05-03T03:27:17.443Z,3.30
2019-05-03T03:29:47.917Z,3.30
2019-05-03T03:32:28.467Z,3.73
2019-05-03T03:35:02.704Z,3.90
2019-05-03T03:37:25.983Z,3.20
2019-05-03T03:39:53.091Z,3.97
2019-05-03T03:42:25.176Z,3.13
2019-05-03T03:44:52.497Z,3.57
2019-05-03T03:47:20.246Z,3.43
2019-05-03T03:49:47.193Z,3.27
2019-05-03T03:52:16.153Z,3.30
2019-05-03T03:54:46.730Z,3.00
2019-05-03T03:57:15.964Z,2.80
2019-05-03T03:59:45.285Z,3.57
2019-05-03T04:02:15.956Z,3.30
2019-05-03T04:04:45.079Z,3.50
2019-05-03T04:07:11.807Z,3.00
2019-05-03T04:09:38.932Z,3.57
2019-05-03T04:12:06.231Z,3.43
2019-05-03T04:14:56.036Z,3.20
2019-05-03T04:17:41.394Z,3.53
2019-05-03T04:20:08.751Z,4.20
2019-05-03T04:22:36.989Z,3.90
2019-05-03T04:25:05.948Z,4.90
2019-05-03T04:27:32.985Z,4.20
2019-05-03T04:29:59.517Z,6.43
2019-05-03T04:32:28.977Z,4.30
2019-05-03T04:34:56.176Z,4.13
2019-05-03T04:37:22.887Z,3.30
2019-05-03T04:39:51.109Z,3.40
2019-05-03T04:42:17.762Z,3.20
2019-05-03T04:44:45.730Z,3.63
2019-05-03T04:47:15.394Z,3.97
2019-05-03T04:49:40.916Z,3.67
2019-05-03T04:52:08.377Z,3.30
2019-05-03T04:54:39.682Z,2.80
2019-05-03T04:57:06.733Z,3.10
2019-05-03T04:59:35.852Z,3.10
2019-05-03T05:02:02.537Z,3.17
2019-05-03T05:04:29.857Z,3.50
2019-05-03T05:06:56.525Z,2.93
2019-05-03T05:09:25.791Z,4.00
2019-05-03T05:11:51.629Z,3.00
2019-05-03T05:14:18.179Z,2.93
2019-05-03T05:16:46.515Z,3.20
2019-05-03T05:19:18.243Z,2.80
2019-05-03T05:21:46.979Z,2.90
2019-05-03T05:24:15.169Z,3.03
2019-05-03T05:26:49.622Z,3.50
2019-05-03T05:29:19.775Z,2.97
2019-05-03T05:31:46.327Z,3.40
2019-05-03T05:34:12.852Z,3.30
2019-05-03T05:36:39.385Z,2.73
2019-05-03T05:39:06.962Z,2.97
2019-05-03T05:41:34.778Z,4.00
2019-05-03T05:44:01.362Z,3.37
2019-05-03T05:46:29.805Z,3.57
2019-05-03T05:48:56.572Z,3.47
2019-05-03T05:51:24.865Z,2.80
2019-05-03T05:53:51.570Z,3.67
2019-05-03T05:56:25.592Z,5.33
2019-05-03T05:59:12.267Z,3.47
2019-05-03T06:01:46.927Z,3.27
2019-05-03T06:04:15.365Z,3.50
2019-05-03T06:07:01.253Z,2.83
2019-05-03T06:09:35.794Z,3.10
2019-05-03T06:12:16.791Z,2.97
2019-05-03T06:14:45.410Z,4.10
2019-05-03T06:17:14.681Z,3.13
2019-05-03T06:19:44.911Z,3.43
2019-05-03T06:22:17.670Z,2.90
2019-05-03T06:25:01.106Z,2.63
2019-05-03T06:27:29.745Z,2.93
2019-05-03T06:29:58.424Z,2.73
2019-05-03T06:32:26.854Z,2.93
2019-05-03T06:34:54.589Z,3.23
2019-05-03T06:37:24.999Z,3.17
2019-05-03T06:39:51.414Z,3.10
2019-05-03T06:42:19.675Z,2.87
2019-05-03T06:44:46.409Z,3.07
2019-05-03T06:47:14.836Z,3.87
2019-05-03T06:49:44.798Z,3.07
2019-05-03T06:52:11.037Z,3.50
2019-05-03T06:54:37.986Z,2.77
2019-05-03T06:57:09.543Z,2.60
2019-05-03T06:59:41.323Z,3.83
2019-05-03T07:02:28.635Z,3.17
2019-05-03T07:04:57.209Z,2.90
2019-05-03T07:07:44.419Z,2.90
2019-05-03T07:10:19.633Z,2.80
2019-05-03T07:13:04.984Z,3.00
2019-05-03T07:15:31.939Z,3.20
2019-05-03T07:17:59.473Z,3.43
2019-05-03T07:20:27.189Z,2.57
2019-05-03T07:22:55.890Z,3.30
2019-05-03T07:25:25.325Z,3.07
2019-05-03T07:27:51.648Z,2.93
2019-05-03T07:30:18.606Z,2.67
2019-05-03T07:32:47.134Z,2.97
2019-05-03T07:35:14.798Z,2.80
2019-05-03T07:37:41.512Z,3.00
2019-05-03T07:40:09.190Z,2.60
2019-05-03T07:42:35.926Z,3.23
2019-05-03T07:45:06.211Z,2.40
2019-05-03T07:47:34.831Z,2.50
2019-05-03T07:50:01.503Z,3.20
2019-05-03T07:52:28.032Z,2.57
2019-05-03T07:54:55.238Z,2.63
2019-05-03T07:57:26.506Z,2.87
2019-05-03T07:59:53.161Z,2.13
2019-05-03T08:02:19.853Z,2.90
2019-05-03T08:04:46.470Z,2.40
2019-05-03T08:07:20.608Z,2.73
2019-05-03T08:09:41.474Z,2.50
2019-05-03T08:12:09.750Z,2.63
2019-05-03T08:14:36.502Z,3.37
2019-05-03T08:17:04.997Z,2.70
2019-05-03T08:19:31.606Z,2.77
2019-05-03T08:21:58.424Z,2.20
2019-05-03T08:24:25.308Z,3.17
2019-05-03T08:26:52.354Z,3.10
2019-05-03T08:29:19.650Z,3.37
2019-05-03T08:31:56.924Z,2.23
2019-05-03T08:34:34.772Z,2.40
2019-05-03T08:37:05.219Z,2.50
2019-05-03T08:39:31.864Z,2.10
2019-05-03T08:42:00.443Z,2.40
2019-05-03T08:44:27.971Z,2.33
2019-05-03T08:46:56.402Z,2.47
2019-05-03T08:49:25.356Z,2.00
2019-05-03T08:51:51.896Z,2.23
2019-05-03T08:54:18.361Z,2.43
2019-05-03T08:56:45.205Z,2.30
2019-05-03T08:59:12.101Z,2.27
2019-05-03T09:01:39.500Z,2.67
2019-05-03T09:04:06.187Z,1.77
2019-05-03T09:06:32.762Z,1.97
2019-05-03T09:08:59.794Z,1.90
2019-05-03T09:11:33.619Z,1.80
2019-05-03T09:13:57.897Z,2.20
2019-05-03T09:16:25.193Z,2.17
2019-05-03T09:18:51.907Z,1.97
2019-05-03T09:21:18.582Z,2.97
2019-05-03T09:23:45.265Z,2.20
2019-05-03T09:26:11.900Z,2.80
2019-05-03T09:28:38.457Z,2.20
2019-05-03T09:31:04.990Z,2.30
2019-05-03T09:33:32.458Z,2.93
2019-05-03T09:35:59.094Z,2.60
2019-05-03T09:38:26.473Z,2.67
2019-05-03T09:40:54.744Z,2.07
2019-05-03T09:43:21.476Z,2.13
2019-05-03T09:45:48.113Z,2.30
2019-05-03T09:48:15.110Z,2.23
2019-05-03T09:50:41.817Z,2.20
2019-05-03T09:53:09.095Z,2.07
2019-05-03T09:55:40.460Z,2.27
2019-05-03T09:58:07.274Z,2.10
2019-05-03T10:00:33.906Z,1.70
2019-05-03T10:03:02.388Z,1.60
2019-05-03T10:05:28.940Z,2.13
2019-05-03T10:07:55.463Z,2.03
2019-05-03T10:10:22.129Z,2.20
2019-05-03T10:12:48.764Z,2.03
2019-05-03T10:15:22.711Z,2.17
2019-05-03T10:17:51.341Z,2.30
2019-05-03T10:20:18.807Z,2.20
2019-05-03T10:22:45.432Z,2.00
2019-05-03T10:25:12.502Z,1.90
2019-05-03T10:27:45.728Z,3.00
2019-05-03T10:30:17.143Z,2.60
2019-05-03T10:33:02.722Z,2.10
2019-05-03T10:35:30.976Z,2.23
2019-05-03T10:37:57.611Z,2.33
2019-05-03T10:40:25.174Z,2.10
2019-05-03T10:42:55.279Z,1.93
2019-05-03T10:45:25.763Z,1.60
2019-05-03T10:47:53.700Z,2.10
2019-05-03T10:50:20.764Z,1.80
2019-05-03T10:52:50.918Z,2.40
2019-05-03T10:55:17.579Z,1.80
2019-05-03T10:57:49.410Z,1.80
2019-05-03T11:00:42.381Z,1.67
2019-05-03T11:02:56.153Z,1.60
2019-05-03T11:05:22.824Z,1.80
2019-05-03T11:07:49.454Z,1.83
2019-05-03T11:10:17.131Z,1.77
2019-05-03T11:12:45.361Z,1.70
2019-05-03T11:15:14.863Z,1.57
2019-05-03T11:17:41.155Z,1.70
2019-05-03T11:20:08.033Z,2.13
2019-05-03T11:22:35.558Z,1.90
2019-05-03T11:25:05.248Z,1.80
2019-05-03T11:27:35.380Z,2.07
2019-05-03T11:30:09.191Z,2.30
2019-05-03T11:32:39.560Z,2.33
2019-05-03T11:35:21.431Z,2.70
2019-05-03T11:37:50.162Z,3.20
2019-05-03T11:40:17.036Z,2.60
2019-05-03T11:42:44.797Z,3.03
2019-05-03T11:45:15.176Z,2.40
2019-05-03T11:47:41.656Z,2.40
2019-05-03T11:50:08.730Z,3.03
2019-05-03T11:52:36.954Z,2.53
2019-05-03T11:55:11.448Z,2.20
2019-05-03T11:57:35.747Z,2.03
2019-05-03T12:00:08.594Z,2.53
2019-05-03T12:02:37.125Z,2.37
2019-05-03T12:05:10.901Z,2.23
2019-05-03T12:07:39.966Z,2.60
2019-05-03T12:10:17.155Z,2.20
2019-05-03T12:12:48.644Z,2.20
2019-05-03T12:15:15.320Z,2.43
2019-05-03T12:17:51.974Z,2.07
2019-05-03T12:20:17.616Z,2.30
2019-05-03T12:22:43.322Z,2.47
2019-05-03T12:25:11.737Z,2.47
2019-05-03T12:27:40.506Z,2.20
2019-05-03T12:30:08.056Z,2.40
2019-05-03T12:32:35.310Z,2.40
2019-05-03T12:35:06.081Z,2.20
2019-05-03T12:37:32.816Z,2.07
2019-05-03T12:39:59.473Z,1.73
2019-05-03T12:42:27.142Z,2.10
2019-05-03T12:44:55.167Z,2.03
2019-05-03T12:47:22.322Z,2.00
2019-05-03T12:49:49.386Z,1.97
2019-05-03T12:52:17.983Z,1.70
2019-05-03T12:54:45.083Z,1.80
2019-05-03T12:57:11.855Z,1.87
2019-05-03T12:59:40.415Z,2.00
2019-05-03T13:02:15.478Z,1.60
2019-05-03T13:04:44.746Z,1.97
2019-05-03T13:07:30.441Z,2.20
2019-05-03T13:09:57.762Z,1.97
2019-05-03T13:12:26.829Z,1.53
2019-05-03T13:14:53.365Z,1.70
2019-05-03T13:17:37.223Z,2.40
2019-05-03T13:20:06.156Z,2.97
2019-05-03T13:22:35.072Z,2.20
2019-05-03T13:25:04.056Z,2.00
2019-05-03T13:27:30.909Z,2.30
2019-05-03T13:29:57.562Z,2.03
2019-05-03T13:32:24.118Z,2.13
2019-05-03T13:34:50.649Z,2.00
2019-05-03T13:37:17.232Z,2.60
2019-05-03T13:39:45.061Z,2.30
2019-05-03T13:42:11.777Z,2.10
2019-05-03T13:44:39.340Z,2.00
2019-05-03T13:47:05.972Z,1.90
2019-05-03T13:49:32.532Z,2.17
2019-05-03T13:51:59.065Z,2.40
2019-05-03T13:54:25.676Z,2.33
2019-05-03T13:56:52.265Z,2.93
2019-05-03T13:59:21.950Z,2.70
2019-05-03T14:01:47.392Z,2.27
2019-05-03T14:04:14.777Z,3.60
2019-05-03T14:06:41.498Z,5.30
2019-05-03T14:09:08.169Z,3.63
2019-05-03T14:11:35.355Z,2.80
2019-05-03T14:14:04.567Z,2.87
2019-05-03T14:16:30.949Z,2.80
2019-05-03T14:18:59.439Z,3.20
2019-05-03T14:21:30.668Z,3.90
2019-05-03T14:24:11.044Z,3.30
2019-05-03T14:26:39.576Z,2.70
2019-05-03T14:29:06.238Z,2.27
2019-05-03T14:31:34.545Z,2.20
2019-05-03T14:34:01.441Z,2.10
2019-05-03T14:36:28.000Z,1.90
2019-05-03T14:38:55.029Z,2.30
2019-05-03T14:41:21.974Z,1.80
2019-05-03T14:43:48.549Z,2.07
2019-05-03T14:46:29.225Z,2.00
2019-05-03T14:48:45.790Z,2.57
2019-05-03T14:51:14.731Z,2.53
2019-05-03T14:53:41.719Z,2.23
2019-05-03T14:56:10.394Z,2.20
2019-05-03T14:58:56.057Z,2.10
2019-05-03T15:01:27.681Z,1.80
2019-05-03T15:03:55.016Z,2.13
2019-05-03T15:06:21.778Z,2.00
2019-05-03T15:08:48.310Z,2.37
2019-05-03T15:11:14.969Z,2.43
2019-05-03T15:13:41.503Z,2.30
2019-05-03T15:16:08.074Z,2.30
2019-05-03T15:18:34.955Z,2.10
2019-05-03T15:21:01.704Z,2.50
2019-05-03T15:23:28.238Z,2.43
2019-05-03T15:25:56.514Z,2.20
2019-05-03T15:28:25.133Z,2.17
2019-05-03T15:30:51.521Z,2.20
2019-05-03T15:33:18.144Z,2.20
2019-05-03T15:35:46.619Z,2.00
2019-05-03T15:38:14.511Z,1.70
2019-05-03T15:40:41.306Z,1.90
2019-05-03T15:43:09.837Z,2.30
2019-05-03T15:45:54.535Z,2.10
2019-05-03T15:48:24.595Z,2.13
2019-05-03T15:50:51.634Z,2.17
2019-05-03T15:53:18.372Z,2.10
2019-05-03T15:55:44.945Z,2.30
2019-05-03T15:58:11.477Z,3.13
2019-05-03T16:00:38.178Z,2.03
2019-05-03T16:03:10.584Z,2.00
2019-05-03T16:05:33.170Z,2.00
2019-05-03T16:07:59.819Z,1.77
2019-05-03T16:10:26.477Z,1.90
2019-05-03T16:12:54.535Z,1.83
2019-05-03T16:15:21.347Z,2.13
2019-05-03T16:17:47.917Z,2.50
2019-05-03T16:20:15.150Z,2.00
2019-05-03T16:22:46.394Z,2.20
2019-05-03T16:25:14.284Z,2.30
2019-05-03T16:27:42.938Z,1.90
2019-05-03T16:30:20.645Z,1.93
2019-05-03T16:32:48.913Z,2.27
2019-05-03T16:35:15.454Z,2.23
2019-05-03T16:37:42.124Z,1.80
2019-05-03T16:40:09.759Z,2.47
2019-05-03T16:42:36.421Z,1.80
2019-05-03T16:45:05.577Z,2.10
2019-05-03T16:47:32.213Z,2.10
2019-05-03T16:50:00.557Z,2.03
2019-05-03T16:52:27.530Z,2.13
2019-05-03T16:54:54.760Z,2.30
2019-05-03T16:57:21.314Z,2.23
2019-05-03T16:59:47.890Z,2.00
2019-05-03T17:02:14.653Z,2.20
2019-05-03T17:04:45.166Z,1.80
2019-05-03T17:07:31.780Z,1.80
2019-05-03T17:10:01.110Z,1.97
2019-05-03T17:12:29.783Z,2.20
2019-05-03T17:14:57.081Z,2.50
2019-05-03T17:17:25.230Z,2.17
2019-05-03T17:19:55.090Z,1.87
2019-05-03T17:22:22.261Z,2.20
2019-05-03T17:24:51.532Z,1.90
2019-05-03T17:27:17.641Z,2.40
2019-05-03T17:29:44.567Z,2.93
2019-05-03T17:32:11.368Z,2.60
2019-05-03T17:34:37.945Z,2.27
2019-05-03T17:37:04.969Z,2.37
2019-05-03T17:39:36.762Z,2.40
2019-05-03T17:42:25.263Z,2.00
2019-05-03T17:44:51.662Z,1.80
2019-05-03T17:47:18.188Z,1.83
2019-05-03T17:49:45.176Z,2.07
2019-05-03T17:52:14.282Z,2.00
2019-05-03T17:54:44.858Z,2.10
2019-05-03T17:57:15.029Z,1.60
2019-05-03T17:59:44.504Z,1.90
2019-05-03T18:02:28.188Z,1.80
2019-05-03T18:05:14.541Z,2.20
2019-05-03T18:07:46.149Z,1.80
2019-05-03T18:10:15.137Z,1.60
2019-05-03T18:12:41.582Z,1.80
2019-05-03T18:15:08.460Z,2.00
2019-05-03T18:17:35.603Z,1.67
2019-05-03T18:20:04.602Z,2.20
2019-05-03T18:22:31.160Z,2.23
2019-05-03T18:24:57.946Z,1.70
2019-05-03T18:27:25.062Z,1.90
2019-05-03T18:29:51.847Z,2.00
2019-05-03T18:32:18.944Z,2.30
2019-05-03T18:34:45.609Z,2.30
2019-05-03T18:37:12.546Z,2.30
2019-05-03T18:39:39.417Z,2.07
2019-05-03T18:42:08.016Z,2.30
2019-05-03T18:44:51.563Z,1.80
2019-05-03T18:47:20.023Z,2.40
2019-05-03T18:49:47.801Z,1.90
2019-05-03T18:52:14.905Z,2.27
2019-05-03T18:54:42.167Z,2.50
2019-05-03T18:57:08.709Z,2.50
2019-05-03T18:59:35.573Z,2.53
2019-05-03T19:02:03.005Z,2.77
2019-05-03T19:04:35.136Z,2.70
2019-05-03T19:07:04.485Z,3.30
2019-05-03T19:09:30.562Z,2.57
2019-05-03T19:12:06.069Z,3.10
2019-05-03T19:14:33.145Z,3.30
2019-05-03T19:17:15.305Z,3.20
2019-05-03T19:19:59.632Z,2.87
2019-05-03T19:22:26.607Z,3.00
2019-05-03T19:24:53.967Z,2.90
2019-05-03T19:27:20.592Z,3.23
2019-05-03T19:29:47.873Z,3.60
2019-05-03T19:32:15.019Z,3.70
2019-05-03T19:34:50.186Z,3.30
2019-05-03T19:37:10.073Z,3.10
2019-05-03T19:39:36.706Z,3.60
2019-05-03T19:42:03.522Z,3.33
2019-05-03T19:44:30.048Z,3.40
2019-05-03T19:46:56.629Z,3.30
2019-05-03T19:49:24.633Z,3.47
2019-05-03T19:51:51.759Z,3.37
2019-05-03T19:54:19.481Z,3.33
2019-05-03T19:56:46.889Z,3.60
2019-05-03T19:59:15.731Z,4.10
2019-05-03T20:01:44.486Z,4.13
2019-05-03T20:04:15.042Z,3.77
2019-05-03T20:06:45.122Z,3.10
2019-05-03T20:09:16.571Z,3.20
2019-05-03T20:11:45.970Z,2.77
2019-05-03T20:14:14.756Z,2.50
2019-05-03T20:16:41.026Z,2.30
2019-05-03T20:19:17.821Z,2.17
2019-05-03T20:21:35.921Z,2.20
2019-05-03T20:24:02.603Z,1.93
2019-05-03T20:26:29.184Z,2.70
2019-05-03T20:28:55.725Z,2.50
2019-05-03T20:31:22.498Z,2.60
2019-05-03T20:33:50.822Z,2.90
2019-05-03T20:36:17.491Z,2.70
2019-05-03T20:38:44.492Z,3.17
2019-05-03T20:41:11.173Z,2.87
2019-05-03T20:43:54.971Z,2.50
2019-05-03T20:46:25.349Z,2.00
2019-05-03T20:48:53.922Z,2.57
2019-05-03T20:51:20.491Z,2.67
2019-05-03T20:53:47.320Z,2.20
2019-05-03T20:56:15.434Z,2.60
2019-05-03T20:58:44.524Z,2.90
2019-05-03T21:01:11.201Z,2.97
2019-05-03T21:03:37.898Z,3.07
2019-05-03T21:06:05.017Z,2.80
2019-05-03T21:08:32.271Z,2.77
2019-05-03T21:10:59.014Z,2.70
2019-05-03T21:13:38.624Z,2.87
2019-05-03T21:16:03.143Z,3.53
2019-05-03T21:18:32.030Z,2.93
2019-05-03T21:21:01.027Z,3.27
2019-05-03T21:23:34.427Z,2.57
2019-05-03T21:26:12.601Z,2.87
2019-05-03T21:28:34.645Z,3.60
2019-05-03T21:31:01.421Z,4.03
2019-05-03T21:33:28.203Z,3.23
2019-05-03T21:35:55.698Z,2.70
2019-05-03T21:38:24.539Z,2.90
2019-05-03T21:40:51.259Z,3.80
2019-05-03T21:43:18.128Z,2.83
2019-05-03T21:45:46.743Z,2.80
2019-05-03T21:48:15.526Z,3.20
2019-05-03T21:50:44.509Z,2.70
2019-05-03T21:53:11.216Z,3.17
2019-05-03T21:55:37.974Z,2.70
2019-05-03T21:58:04.891Z,2.87
2019-05-03T22:00:45.528Z,2.80
2019-05-03T22:03:12.222Z,2.57
2019-05-03T22:05:52.760Z,3.27
2019-05-03T22:08:08.957Z,4.90
2019-05-03T22:10:35.591Z,2.90
2019-05-03T22:13:02.218Z,3.47
2019-05-03T22:15:30.812Z,4.20
2019-05-03T22:18:11.346Z,3.60
2019-05-03T22:20:40.006Z,3.30
2019-05-03T22:23:19.193Z,4.37
2019-05-03T22:25:45.841Z,3.70
2019-05-03T22:28:12.570Z,3.30
2019-05-03T22:30:39.354Z,3.37
2019-05-03T22:33:05.978Z,4.73
2019-05-03T22:35:32.773Z,4.27
2019-05-03T22:37:59.658Z,3.10
2019-05-03T22:40:27.321Z,3.77
2019-05-03T22:42:53.952Z,4.40
2019-05-03T22:45:20.706Z,3.70
2019-05-03T22:47:47.336Z,3.23
2019-05-03T22:50:15.069Z,4.00
2019-05-03T22:52:45.380Z,3.90
2019-05-03T22:55:15.165Z,4.40
2019-05-03T22:57:41.851Z,4.60
2019-05-03T23:00:09.460Z,4.50
2019-05-03T23:02:36.252Z,3.87
2019-05-03T23:05:04.805Z,4.20
2019-05-03T23:07:36.902Z,3.47
2019-05-03T23:10:04.327Z,3.67
2019-05-03T23:12:30.917Z,4.07
2019-05-03T23:14:57.485Z,4.50
2019-05-03T23:17:25.396Z,4.60
2019-05-03T23:19:54.064Z,5.20
2019-05-03T23:22:25.278Z,4.40
2019-05-03T23:24:52.173Z,5.07
2019-05-03T23:27:19.163Z,4.90
2019-05-03T23:29:46.167Z,5.13
2019-05-03T23:32:15.163Z,4.97
2019-05-03T23:34:41.943Z,6.27
2019-05-03T23:37:09.344Z,6.60
2019-05-03T23:39:36.721Z,6.40
2019-05-03T23:42:04.999Z,6.60
2019-05-03T23:44:32.174Z,6.77
2019-05-03T23:47:02.325Z,6.73
2019-05-03T23:49:29.358Z,6.70
2019-05-03T23:51:57.991Z,7.43
2019-05-03T23:54:24.834Z,7.37
2019-05-03T23:56:51.697Z,7.07
2019-05-03T23:59:18.403Z,6.90
